createdAt,value
2022-08-29T00:01:13.115Z,16.28
2022-08-29T00:03:43.099Z,15.93
2022-08-29T00:06:10.958Z,16.03
2022-08-29T00:08:38.122Z,16.20
2022-08-29T00:11:06.806Z,16.16
2022-08-29T00:13:35.629Z,16.10
2022-08-29T00:16:03.446Z,15.80
2022-08-29T00:18:30.990Z,15.92
2022-08-29T00:20:58.274Z,15.26
2022-08-29T00:23:25.953Z,15.99
2022-08-29T00:25:53.358Z,15.96
2022-08-29T00:28:21.012Z,15.93
2022-08-29T00:30:50.564Z,15.87
2022-08-29T00:33:18.871Z,15.84
2022-08-29T00:35:46.998Z,15.83
2022-08-29T00:38:18.266Z,15.76
2022-08-29T00:40:53.129Z,15.74
2022-08-29T00:43:26.172Z,15.58
2022-08-29T00:46:38.796Z,15.68
2022-08-29T00:49:22.977Z,15.67
2022-08-29T00:51:52.082Z,15.66
2022-08-29T00:54:20.159Z,15.63
2022-08-29T00:56:48.014Z,15.61
2022-08-29T00:59:31.771Z,15.62
2022-08-29T01:01:59.349Z,15.62
2022-08-29T01:04:27.137Z,15.61
2022-08-29T01:06:54.874Z,15.48
2022-08-29T01:09:24.393Z,15.26
2022-08-29T01:12:11.683Z,15.46
2022-08-29T01:14:41.176Z,15.52
2022-08-29T01:17:10.629Z,15.48
2022-08-29T01:20:18.937Z,15.43
2022-08-29T01:23:27.525Z,15.42
2022-08-29T01:25:57.673Z,15.35
2022-08-29T01:28:37.940Z,15.33
2022-08-29T01:31:11.434Z,15.28
2022-08-29T01:33:49.407Z,15.28
2022-08-29T01:36:25.188Z,15.25
2022-08-29T01:38:52.785Z,15.29
2022-08-29T01:41:22.722Z,15.31
2022-08-29T01:43:53.081Z,15.29
2022-08-29T01:46:24.677Z,15.29
2022-08-29T01:48:52.225Z,15.27
2022-08-29T01:51:20.218Z,15.31
2022-08-29T01:53:47.908Z,15.33
2022-08-29T01:56:24.124Z,15.35
2022-08-29T01:58:54.143Z,15.32
2022-08-29T02:01:27.804Z,15.33
2022-08-29T02:03:58.709Z,15.31
2022-08-29T02:06:28.452Z,15.31
2022-08-29T02:08:55.758Z,15.30
2022-08-29T02:11:23.673Z,15.28
2022-08-29T02:13:57.396Z,15.29
2022-08-29T02:16:27.319Z,15.29
2022-08-29T02:18:55.820Z,15.29
2022-08-29T02:21:27.365Z,15.25
2022-08-29T02:23:57.194Z,15.21
2022-08-29T02:26:24.893Z,15.20
2022-08-29T02:28:53.504Z,15.15
2022-08-29T02:31:22.777Z,15.14
2022-08-29T02:33:51.934Z,14.70
2022-08-29T02:36:21.374Z,15.06
2022-08-29T02:38:50.008Z,15.05
2022-08-29T02:41:17.672Z,15.05
2022-08-29T02:43:45.120Z,15.06
2022-08-29T02:46:20.035Z,14.99
2022-08-29T02:48:49.302Z,14.92
2022-08-29T02:51:29.849Z,14.88
2022-08-29T02:53:58.337Z,14.83
2022-08-29T02:56:26.503Z,14.83
2022-08-29T02:58:53.992Z,14.79
2022-08-29T03:01:23.989Z,14.75
2022-08-29T03:03:52.656Z,14.75
2022-08-29T03:06:21.226Z,14.72
2022-08-29T03:08:49.233Z,14.75
2022-08-29T03:11:17.538Z,14.74
2022-08-29T03:13:46.109Z,14.70
2022-08-29T03:16:13.888Z,14.65
2022-08-29T03:18:41.583Z,14.64
2022-08-29T03:21:17.250Z,14.58
2022-08-29T03:23:44.754Z,14.51
2022-08-29T03:26:12.244Z,14.54
2022-08-29T03:28:39.822Z,14.52
2022-08-29T03:31:07.707Z,14.52
2022-08-29T03:33:35.347Z,14.50
2022-08-29T03:36:03.426Z,14.49
2022-08-29T03:38:35.711Z,14.44
2022-08-29T03:41:02.908Z,14.41
2022-08-29T03:43:30.125Z,14.40
2022-08-29T03:45:57.883Z,13.67
2022-08-29T03:48:24.861Z,14.42
2022-08-29T03:50:55.844Z,14.65
2022-08-29T03:53:24.655Z,14.55
2022-08-29T03:55:52.156Z,14.87
2022-08-29T03:58:19.454Z,14.92
2022-08-29T04:00:47.511Z,14.79
2022-08-29T04:03:14.579Z,14.85
2022-08-29T04:05:41.783Z,14.90
2022-08-29T04:08:09.421Z,14.92
2022-08-29T04:10:39.141Z,15.06
2022-08-29T04:13:08.454Z,15.11
2022-08-29T04:15:38.679Z,15.01
2022-08-29T04:18:08.835Z,15.09
2022-08-29T04:20:39.627Z,15.20
2022-08-29T04:23:07.145Z,15.23
2022-08-29T04:25:37.789Z,14.88
2022-08-29T04:28:09.202Z,15.20
2022-08-29T04:30:39.128Z,15.19
2022-08-29T04:33:07.048Z,15.20
2022-08-29T04:35:35.509Z,15.22
2022-08-29T04:38:03.953Z,15.26
2022-08-29T04:40:31.523Z,15.31
2022-08-29T04:42:59.487Z,15.31
2022-08-29T04:45:27.457Z,15.29
2022-08-29T04:47:55.124Z,15.19
2022-08-29T04:50:24.366Z,15.03
2022-08-29T04:52:56.049Z,14.92
2022-08-29T04:55:25.695Z,14.33
2022-08-29T04:57:56.359Z,14.91
2022-08-29T05:00:28.395Z,14.78
2022-08-29T05:02:55.894Z,14.71
2022-08-29T05:05:23.535Z,15.08
2022-08-29T05:07:51.009Z,15.19
2022-08-29T05:10:20.799Z,15.18
2022-08-29T05:12:48.784Z,15.16
2022-08-29T05:15:17.076Z,14.99
2022-08-29T05:17:45.469Z,14.88
2022-08-29T05:20:14.048Z,14.82
2022-08-29T05:22:42.304Z,14.89
2022-08-29T05:25:17.309Z,15.05
2022-08-29T05:27:45.783Z,15.25
2022-08-29T05:30:14.123Z,15.35
2022-08-29T05:32:41.100Z,15.16
2022-08-29T05:35:08.838Z,15.22
2022-08-29T05:37:36.992Z,15.05
2022-08-29T05:40:05.446Z,15.27
2022-08-29T05:42:32.670Z,14.49
2022-08-29T05:44:59.789Z,14.52
2022-08-29T05:47:27.172Z,14.67
2022-08-29T05:49:54.192Z,14.73
2022-08-29T05:52:21.570Z,14.48
2022-08-29T05:54:49.248Z,14.79
2022-08-29T05:57:20.738Z,14.99
2022-08-29T05:59:51.151Z,15.14
2022-08-29T06:02:21.191Z,15.10
2022-08-29T06:04:48.639Z,15.01
2022-08-29T06:07:16.008Z,15.08
2022-08-29T06:09:44.745Z,14.92
2022-08-29T06:12:16.337Z,15.29
2022-08-29T06:14:50.375Z,15.04
2022-08-29T06:17:18.592Z,15.37
2022-08-29T06:19:46.068Z,15.61
2022-08-29T06:22:13.166Z,15.81
2022-08-29T06:24:44.438Z,15.40
2022-08-29T06:27:13.030Z,15.46
2022-08-29T06:29:43.395Z,15.97
2022-08-29T06:32:13.036Z,15.96
2022-08-29T06:34:40.713Z,16.03
2022-08-29T06:37:09.712Z,16.12
2022-08-29T06:39:36.779Z,16.09
2022-08-29T06:42:04.089Z,15.85
2022-08-29T06:44:34.876Z,15.72
2022-08-29T06:47:02.029Z,16.34
2022-08-29T06:49:29.788Z,16.37
2022-08-29T06:51:58.381Z,16.08
2022-08-29T06:54:28.772Z,16.52
2022-08-29T06:56:57.748Z,16.67
2022-08-29T06:59:25.937Z,16.77
2022-08-29T07:01:55.211Z,16.70
2022-08-29T07:04:22.775Z,16.76
2022-08-29T07:06:53.407Z,16.73
2022-08-29T07:09:20.396Z,16.94
2022-08-29T07:11:47.464Z,16.57
2022-08-29T07:14:14.672Z,16.75
2022-08-29T07:16:42.732Z,17.09
2022-08-29T07:19:10.866Z,17.02
2022-08-29T07:21:38.946Z,17.06
2022-08-29T07:24:07.712Z,16.94
2022-08-29T07:26:43.070Z,17.20
2022-08-29T07:29:16.134Z,17.21
2022-08-29T07:31:43.609Z,17.24
2022-08-29T07:34:11.407Z,17.26
2022-08-29T07:36:39.542Z,17.16
2022-08-29T07:39:12.148Z,17.23
2022-08-29T07:41:41.301Z,17.34
2022-08-29T07:44:09.491Z,17.28
2022-08-29T07:46:38.209Z,17.44
2022-08-29T07:49:05.723Z,17.57
2022-08-29T07:51:32.933Z,17.31
2022-08-29T07:54:00.133Z,17.49
2022-08-29T07:56:37.772Z,17.62
2022-08-29T07:59:06.840Z,17.73
2022-08-29T08:01:35.593Z,17.77
2022-08-29T08:04:04.074Z,17.73
2022-08-29T08:06:34.638Z,17.85
2022-08-29T08:09:05.548Z,17.94
2022-08-29T08:11:32.733Z,18.01
2022-08-29T08:14:00.267Z,17.68
2022-08-29T08:16:28.926Z,18.14
2022-08-29T08:18:56.862Z,18.02
2022-08-29T08:21:26.255Z,18.52
2022-08-29T08:23:54.386Z,18.69
2022-08-29T08:26:22.403Z,18.74
2022-08-29T08:28:50.300Z,18.98
2022-08-29T08:31:18.341Z,19.27
2022-08-29T08:33:47.649Z,19.42
2022-08-29T08:36:30.460Z,19.95
2022-08-29T08:39:00.035Z,20.09
2022-08-29T08:41:52.461Z,20.61
2022-08-29T08:44:22.136Z,20.82
2022-08-29T08:46:54.756Z,21.42
2022-08-29T08:49:40.617Z,21.22
2022-08-29T08:52:34.101Z,21.59
2022-08-29T08:55:24.756Z,21.98
2022-08-29T08:58:34.391Z,22.19
2022-08-29T09:01:39.873Z,22.35
2022-08-29T09:04:12.892Z,23.19
2022-08-29T09:06:58.376Z,23.42
2022-08-29T09:10:21.202Z,23.90
2022-08-29T09:13:12.816Z,24.42
2022-08-29T09:15:49.623Z,24.41
2022-08-29T09:18:36.085Z,24.57
2022-08-29T09:21:39.432Z,24.82
2022-08-29T09:24:06.129Z,25.15
2022-08-29T09:26:34.932Z,25.81
2022-08-29T09:29:01.987Z,25.96
2022-08-29T09:31:35.447Z,26.24
2022-08-29T09:34:12.741Z,26.24
2022-08-29T09:36:52.552Z,25.20
2022-08-29T09:39:30.237Z,25.02
2022-08-29T09:42:12.491Z,25.99
2022-08-29T09:44:43.276Z,26.51
2022-08-29T09:47:21.273Z,26.77
2022-08-29T09:50:11.691Z,27.20
2022-08-29T09:52:57.965Z,27.38
2022-08-29T09:55:31.133Z,27.43
2022-08-29T09:58:25.792Z,27.32
2022-08-29T10:01:19.423Z,27.35
2022-08-29T10:03:58.562Z,28.05
2022-08-29T10:06:45.042Z,27.80
2022-08-29T10:09:28.953Z,28.39
2022-08-29T10:12:08.635Z,27.75
2022-08-29T10:14:54.475Z,27.73
2022-08-29T10:18:00.920Z,27.42
2022-08-29T10:20:46.951Z,27.92
2022-08-29T10:23:42.824Z,27.64
2022-08-29T10:26:36.885Z,28.02
2022-08-29T10:29:31.896Z,28.17
2022-08-29T10:32:42.325Z,27.57
2022-08-29T10:35:32.920Z,28.15
2022-08-29T10:38:32.927Z,29.62
2022-08-29T10:41:03.126Z,30.34
2022-08-29T10:44:05.400Z,30.64
2022-08-29T10:47:12.196Z,28.79
2022-08-29T10:50:40.748Z,29.93
2022-08-29T10:53:19.914Z,29.12
2022-08-29T10:56:04.400Z,29.35
2022-08-29T10:59:18.523Z,30.00
2022-08-29T11:02:05.776Z,29.12
2022-08-29T11:04:50.725Z,28.18
2022-08-29T11:07:34.500Z,28.34
2022-08-29T11:10:10.816Z,28.67
2022-08-29T11:12:59.043Z,29.02
2022-08-29T11:15:44.026Z,29.34
2022-08-29T11:18:45.107Z,29.99
2022-08-29T11:21:37.374Z,29.66
2022-08-29T11:24:06.271Z,30.04
2022-08-29T11:26:58.266Z,30.33
2022-08-29T11:29:41.261Z,29.80
2022-08-29T11:32:36.031Z,29.58
2022-08-29T11:35:21.955Z,29.55
2022-08-29T11:38:46.774Z,29.68
2022-08-29T11:41:37.141Z,28.92
2022-08-29T11:44:25.150Z,29.39
2022-08-29T11:46:56.214Z,27.77
2022-08-29T11:49:38.577Z,28.27
2022-08-29T11:52:08.539Z,28.41
2022-08-29T11:54:35.592Z,28.10
2022-08-29T11:57:02.751Z,28.31
2022-08-29T12:00:04.283Z,28.43
2022-08-29T12:02:42.686Z,28.22
2022-08-29T12:05:17.801Z,28.48
2022-08-29T12:08:36.524Z,27.62
2022-08-29T12:11:05.807Z,27.42
2022-08-29T12:13:48.207Z,26.45
2022-08-29T12:16:43.601Z,26.08
2022-08-29T12:19:10.920Z,25.79
2022-08-29T12:21:37.775Z,25.85
2022-08-29T12:24:28.915Z,25.18
2022-08-29T12:26:56.552Z,23.93
2022-08-29T12:29:33.310Z,24.29
2022-08-29T12:32:50.573Z,24.05
2022-08-29T12:35:18.177Z,24.23
2022-08-29T12:37:52.703Z,23.98
2022-08-29T12:40:28.453Z,23.95
2022-08-29T12:43:25.899Z,23.63
2022-08-29T12:45:57.168Z,23.79
2022-08-29T12:48:40.192Z,23.88
2022-08-29T12:51:09.660Z,23.79
2022-08-29T12:53:37.765Z,23.59
2022-08-29T12:56:22.416Z,23.23
2022-08-29T12:58:52.987Z,23.19
2022-08-29T13:01:30.902Z,23.48
2022-08-29T13:04:17.819Z,23.38
2022-08-29T13:06:59.011Z,23.32
2022-08-29T13:09:49.296Z,23.28
2022-08-29T13:12:30.083Z,23.41
2022-08-29T13:15:07.655Z,23.66
2022-08-29T13:17:36.597Z,23.77
2022-08-29T13:20:38.037Z,23.79
2022-08-29T13:23:05.468Z,23.92
2022-08-29T13:25:34.445Z,23.98
2022-08-29T13:28:02.195Z,23.98
2022-08-29T13:30:29.689Z,23.36
2022-08-29T13:33:00.355Z,23.36
2022-08-29T13:35:35.886Z,23.51
2022-08-29T13:38:24.037Z,23.45
2022-08-29T13:40:55.092Z,23.47
2022-08-29T13:43:41.434Z,23.45
2022-08-29T13:46:25.835Z,23.46
2022-08-29T13:49:01.345Z,23.40
2022-08-29T13:51:28.989Z,23.18
2022-08-29T13:53:56.954Z,23.28
2022-08-29T13:56:33.197Z,23.33
2022-08-29T13:59:05.934Z,23.31
2022-08-29T14:04:37.318Z,22.92
2022-08-29T14:07:08.673Z,23.41
2022-08-29T14:09:41.048Z,23.50
2022-08-29T14:12:08.806Z,23.57
2022-08-29T14:14:37.055Z,23.22
2022-08-29T14:17:07.397Z,23.16
2022-08-29T14:19:35.341Z,23.30
2022-08-29T14:22:11.543Z,23.48
2022-08-29T14:24:45.247Z,23.48
2022-08-29T14:27:15.362Z,23.71
2022-08-29T14:29:42.473Z,24.13
2022-08-29T14:32:12.287Z,24.27
2022-08-29T14:34:40.238Z,24.46
2022-08-29T14:37:18.571Z,24.29
2022-08-29T14:39:45.543Z,24.14
2022-08-29T14:42:20.379Z,24.28
2022-08-29T14:44:55.124Z,24.16
2022-08-29T14:47:24.109Z,23.84
2022-08-29T14:49:51.204Z,24.19
2022-08-29T14:52:20.467Z,24.22
2022-08-29T14:54:47.472Z,24.16
2022-08-29T14:57:14.695Z,24.03
2022-08-29T14:59:42.483Z,23.90
2022-08-29T15:02:10.284Z,24.10
2022-08-29T15:04:38.182Z,24.15
2022-08-29T15:07:12.264Z,24.04
2022-08-29T15:09:43.594Z,23.49
2022-08-29T15:12:17.748Z,23.85
2022-08-29T15:14:46.571Z,23.86
2022-08-29T15:17:14.677Z,23.79
2022-08-29T15:22:28.985Z,23.31
2022-08-29T15:24:56.104Z,23.34
2022-08-29T15:27:27.387Z,23.64
2022-08-29T15:29:58.395Z,23.40
2022-08-29T15:32:25.951Z,23.13
2022-08-29T15:34:53.310Z,23.39
2022-08-29T15:37:20.407Z,23.42
2022-08-29T15:39:49.846Z,23.51
2022-08-29T15:42:28.880Z,23.28
2022-08-29T15:45:07.695Z,23.05
2022-08-29T15:47:39.888Z,22.96
2022-08-29T15:50:09.706Z,22.65
2022-08-29T15:52:43.228Z,22.81
2022-08-29T15:55:12.661Z,22.78
2022-08-29T15:57:52.197Z,23.21
2022-08-29T16:00:29.765Z,23.29
2022-08-29T16:03:03.534Z,23.27
2022-08-29T16:05:33.732Z,23.36
2022-08-29T16:08:04.275Z,23.17
2022-08-29T16:10:35.077Z,23.27
2022-08-29T16:13:02.762Z,22.89
2022-08-29T16:15:34.003Z,23.27
2022-08-29T16:18:05.508Z,23.20
2022-08-29T16:20:35.834Z,23.12
2022-08-29T16:23:04.626Z,23.17
2022-08-29T16:25:33.448Z,23.21
2022-08-29T16:28:01.212Z,23.20
2022-08-29T16:30:33.262Z,22.96
2022-08-29T16:33:01.251Z,22.77
2022-08-29T16:35:28.876Z,23.02
2022-08-29T16:38:02.468Z,22.91
2022-08-29T16:40:34.519Z,22.71
2022-08-29T16:43:04.804Z,22.77
2022-08-29T16:45:33.117Z,22.23
2022-08-29T16:48:00.359Z,22.50
2022-08-29T16:50:28.739Z,22.35
2022-08-29T16:52:56.327Z,22.42
2022-08-29T16:55:24.271Z,22.34
2022-08-29T16:58:10.299Z,22.21
2022-08-29T17:00:39.464Z,21.96
2022-08-29T17:03:06.739Z,21.98
2022-08-29T17:05:33.883Z,22.03
2022-08-29T17:08:00.880Z,21.74
2022-08-29T17:10:28.031Z,21.24
2022-08-29T17:12:55.285Z,21.01
2022-08-29T17:15:22.708Z,21.58
2022-08-29T17:17:49.729Z,21.41
2022-08-29T17:20:17.157Z,21.58
2022-08-29T17:22:44.190Z,21.36
2022-08-29T17:25:11.871Z,20.86
2022-08-29T17:27:39.142Z,21.38
2022-08-29T17:30:08.342Z,21.23
2022-08-29T17:32:35.593Z,21.22
2022-08-29T17:35:02.682Z,21.19
2022-08-29T17:37:36.072Z,21.14
2022-08-29T17:40:06.530Z,21.08
2022-08-29T17:42:33.714Z,21.04
2022-08-29T17:45:00.800Z,20.76
2022-08-29T17:47:28.723Z,20.92
2022-08-29T17:49:56.033Z,20.66
2022-08-29T17:52:23.282Z,20.73
2022-08-29T17:54:53.926Z,20.78
2022-08-29T17:57:21.311Z,20.70
2022-08-29T17:59:53.893Z,20.50
2022-08-29T18:02:21.770Z,20.61
2022-08-29T18:04:48.845Z,19.97
2022-08-29T18:07:16.230Z,20.53
2022-08-29T18:09:43.669Z,20.41
2022-08-29T18:12:10.680Z,20.03
2022-08-29T18:14:38.105Z,20.41
2022-08-29T18:17:05.836Z,20.09
2022-08-29T18:19:33.196Z,20.42
2022-08-29T18:22:00.266Z,20.38
2022-08-29T18:24:27.390Z,20.31
2022-08-29T18:26:54.509Z,20.31
2022-08-29T18:29:21.869Z,20.14
2022-08-29T18:31:49.984Z,20.20
2022-08-29T18:34:17.693Z,20.11
2022-08-29T18:36:46.892Z,20.02
2022-08-29T18:39:15.811Z,19.95
2022-08-29T18:41:45.268Z,19.47
2022-08-29T18:44:13.887Z,19.52
2022-08-29T18:46:41.236Z,19.62
2022-08-29T18:49:09.080Z,19.57
2022-08-29T18:51:39.686Z,19.52
2022-08-29T18:54:09.541Z,19.45
2022-08-29T18:56:38.113Z,19.43
2022-08-29T18:59:05.325Z,19.11
2022-08-29T19:01:33.877Z,19.08
2022-08-29T19:04:02.633Z,19.21
2022-08-29T19:06:29.854Z,19.18
2022-08-29T19:08:58.319Z,19.01
2022-08-29T19:11:28.166Z,18.97
2022-08-29T19:13:55.499Z,18.62
2022-08-29T19:16:26.035Z,18.92
2022-08-29T19:18:53.370Z,18.63
2022-08-29T19:21:22.660Z,18.75
2022-08-29T19:23:53.467Z,18.81
2022-08-29T19:26:31.627Z,18.77
2022-08-29T19:29:09.895Z,18.56
2022-08-29T19:31:37.521Z,18.50
2022-08-29T19:34:04.714Z,18.18
2022-08-29T19:36:34.757Z,18.58
2022-08-29T19:39:01.917Z,18.50
2022-08-29T19:41:29.285Z,18.23
2022-08-29T19:43:56.348Z,17.97
2022-08-29T19:46:28.078Z,18.27
2022-08-29T19:48:56.430Z,17.88
2022-08-29T19:51:25.583Z,18.27
2022-08-29T19:53:57.183Z,18.35
2022-08-29T19:56:26.461Z,18.10
2022-08-29T19:58:54.105Z,17.00
2022-08-29T20:01:21.428Z,18.23
2022-08-29T20:03:49.996Z,18.05
2022-08-29T20:06:20.480Z,18.11
2022-08-29T20:08:48.045Z,18.15
2022-08-29T20:11:20.283Z,18.12
2022-08-29T20:13:51.051Z,18.05
2022-08-29T20:16:22.829Z,18.01
2022-08-29T20:18:52.308Z,17.99
2022-08-29T20:21:23.303Z,17.93
2022-08-29T20:23:57.274Z,17.98
2022-08-29T20:26:27.930Z,17.96
2022-08-29T20:28:56.230Z,17.77
2022-08-29T20:31:23.360Z,17.93
2022-08-29T20:33:51.075Z,17.68
2022-08-29T20:36:41.051Z,17.82
2022-08-29T20:39:12.260Z,17.85
2022-08-29T20:41:39.947Z,17.79
2022-08-29T20:44:09.887Z,17.94
2022-08-29T20:46:42.632Z,17.88
2022-08-29T20:49:12.625Z,17.58
2022-08-29T20:51:43.989Z,17.78
2022-08-29T20:54:18.384Z,17.73
2022-08-29T20:56:45.908Z,17.55
2022-08-29T20:59:13.171Z,17.27
2022-08-29T21:01:41.686Z,17.42
2022-08-29T21:04:29.912Z,17.08
2022-08-29T21:07:04.258Z,17.27
2022-08-29T21:09:35.819Z,17.22
2022-08-29T21:12:03.836Z,17.15
2022-08-29T21:14:31.086Z,17.19
2022-08-29T21:16:58.790Z,17.15
2022-08-29T21:19:31.765Z,17.09
2022-08-29T21:22:01.576Z,17.06
2022-08-29T21:24:30.435Z,17.10
2022-08-29T21:27:01.225Z,17.04
2022-08-29T21:29:28.951Z,16.69
2022-08-29T21:31:56.602Z,16.74
2022-08-29T21:34:24.468Z,16.99
2022-08-29T21:36:52.210Z,16.75
2022-08-29T21:39:28.767Z,16.79
2022-08-29T21:41:57.930Z,16.70
2022-08-29T21:44:28.819Z,16.68
2022-08-29T21:46:56.088Z,16.55
2022-08-29T21:49:23.888Z,16.62
2022-08-29T21:51:50.967Z,16.46
2022-08-29T21:54:21.128Z,16.64
2022-08-29T21:56:50.450Z,16.61
2022-08-29T21:59:19.284Z,16.51
2022-08-29T22:01:49.000Z,16.65
2022-08-29T22:04:28.289Z,15.99
2022-08-29T22:06:59.216Z,16.63
2022-08-29T22:09:28.567Z,16.64
2022-08-29T22:11:59.588Z,16.23
2022-08-29T22:14:46.741Z,16.48
2022-08-29T22:17:17.184Z,16.43
2022-08-29T22:19:47.527Z,16.11
2022-08-29T22:22:17.243Z,16.06
2022-08-29T22:24:44.310Z,16.16
2022-08-29T22:27:11.415Z,16.08
2022-08-29T22:29:38.612Z,16.33
2022-08-29T22:32:06.030Z,16.34
2022-08-29T22:34:33.423Z,15.95
2022-08-29T22:37:00.853Z,16.19
2022-08-29T22:39:28.740Z,16.16
2022-08-29T22:41:56.509Z,16.14
2022-08-29T22:47:16.076Z,16.10
2022-08-29T22:49:43.401Z,16.06
2022-08-29T22:52:13.990Z,16.04
2022-08-29T22:54:41.905Z,16.02
2022-08-29T22:57:12.263Z,16.02
2022-08-29T22:59:41.485Z,15.97
2022-08-29T23:02:09.784Z,15.98
2022-08-29T23:04:38.259Z,15.92
2022-08-29T23:07:07.924Z,15.89
2022-08-29T23:09:36.075Z,15.91
2022-08-29T23:12:08.737Z,15.87
2022-08-29T23:14:41.637Z,15.80
2022-08-29T23:17:10.355Z,15.81
2022-08-29T23:19:40.932Z,15.77
2022-08-29T23:22:11.396Z,15.71
2022-08-29T23:24:57.585Z,15.66
2022-08-29T23:27:28.192Z,15.61
2022-08-29T23:29:57.180Z,15.61
2022-08-29T23:32:24.440Z,15.20
2022-08-29T23:34:52.267Z,15.50
2022-08-29T23:37:19.600Z,15.49
2022-08-29T23:39:46.993Z,15.44
2022-08-29T23:42:14.246Z,15.36
2022-08-29T23:44:41.269Z,15.36
2022-08-29T23:47:08.927Z,15.36
2022-08-29T23:49:36.162Z,15.38
2022-08-29T23:52:05.042Z,15.42
2022-08-29T23:54:32.068Z,15.40
2022-08-29T23:56:59.185Z,15.35
2022-08-29T23:59:45.381Z,15.31
